Time;durP1;ratioP1;P1;durP2;ratioP2;P2;SDS_P1;SDS_P2;PMS_P1;PMS_P2;Temp;Humidity;BMP_temperature;BMP_pressure;BME280_temperature;BME280_humidity;BME280_pressure;Samples;Min_cycle;Max_cycle;Signal;HPM_P1;HPM_P2
2023/03/09 00:01:19;;;;;;;0.00;0.00;;;;;;;3.81;87.95;97841.38;6273853;22;19910;-76
2023/03/09 00:03:45;;;;;;;0.00;0.00;;;;;;;3.70;88.35;97826.34;6306703;22;20416;-77
2023/03/09 00:06:13;;;;;;;0.00;0.00;;;;;;;3.66;87.77;97826.09;6248067;22;20090;-77
2023/03/09 00:08:39;;;;;;;0.00;0.00;;;;;;;3.79;87.76;97851.69;6307808;22;19999;-75
2023/03/09 00:11:06;;;;;;;0.00;0.00;;;;;;;3.80;88.19;97847.88;6306642;22;20007;-75
2023/03/09 00:13:33;;;;;;;0.00;0.00;;;;;;;3.82;87.83;97834.88;6311612;22;20011;-76
2023/03/09 00:16:09;;;;;;;0.00;0.00;;;;;;;3.97;87.38;97856.38;6287640;22;20405;-76
2023/03/09 00:18:36;;;;;;;0.00;0.00;;;;;;;3.95;87.72;97872.06;6303960;22;20108;-77
2023/03/09 00:21:02;;;;;;;0.00;0.00;;;;;;;3.82;87.61;97860.00;6340970;22;20417;-78
2023/03/09 00:23:29;;;;;;;0.00;0.00;;;;;;;3.92;88.06;97888.84;6308122;22;20011;-77
2023/03/09 00:25:55;;;;;;;0.00;0.00;;;;;;;3.91;88.11;97891.84;6313974;22;20449;-77
2023/03/09 00:28:20;;;;;;;0.00;0.00;;;;;;;3.84;87.65;97887.59;6258948;22;20117;-77
2023/03/09 00:30:46;;;;;;;0.00;0.00;;;;;;;3.76;87.77;97873.88;6312844;22;20062;-77
2023/03/09 00:33:11;;;;;;;0.00;0.00;;;;;;;3.76;87.29;97885.47;6312501;22;19999;-77
2023/03/09 00:35:37;;;;;;;0.00;0.00;;;;;;;3.84;87.78;97902.97;6286186;22;20485;-77
2023/03/09 00:38:03;;;;;;;0.00;0.00;;;;;;;3.82;88.22;97897.84;6311686;22;20332;-77
2023/03/09 00:40:29;;;;;;;0.00;0.00;;;;;;;3.80;87.66;97897.34;6282635;22;20452;-77
2023/03/09 00:42:54;;;;;;;0.00;0.00;;;;;;;3.88;87.33;97920.25;6309667;22;20458;-76
2023/03/09 00:45:22;;;;;;;0.00;0.00;;;;;;;3.83;86.98;97918.41;6333157;22;19999;-76
2023/03/09 00:47:48;;;;;;;0.10;0.10;;;;;;;3.83;87.37;97926.50;6283013;22;20002;-77
2023/03/09 00:50:13;;;;;;;0.00;0.00;;;;;;;3.76;86.80;97927.94;6308539;22;20056;-77
2023/03/09 00:52:39;;;;;;;0.00;0.00;;;;;;;3.71;86.77;97926.09;6308512;22;20006;-78
2023/03/09 00:55:05;;;;;;;0.00;0.00;;;;;;;3.69;86.98;97930.16;6286622;22;20375;-77
2023/03/09 00:57:34;;;;;;;0.00;0.00;;;;;;;3.60;86.93;97941.56;6332706;22;20109;-77
2023/03/09 01:00:00;;;;;;;0.00;0.00;;;;;;;3.61;87.83;97948.56;6336687;22;20002;-78
2023/03/09 01:02:25;;;;;;;0.00;0.00;;;;;;;3.53;87.71;97945.66;6300255;22;20090;-79
2023/03/09 01:04:51;;;;;;;0.00;0.00;;;;;;;3.47;87.75;97944.88;6305177;22;20484;-76
2023/03/09 01:07:19;;;;;;;0.00;0.00;;;;;;;3.55;88.36;97959.69;6279851;22;20006;-78
2023/03/09 01:09:45;;;;;;;0.00;0.00;;;;;;;3.42;87.99;97961.94;6330891;22;19999;-78
2023/03/09 01:12:10;;;;;;;0.00;0.00;;;;;;;3.44;88.15;97977.88;6279413;22;20007;-78
2023/03/09 01:14:36;;;;;;;0.00;0.00;;;;;;;3.41;88.18;97973.03;6275490;22;20003;-77
2023/03/09 01:17:01;;;;;;;0.00;0.00;;;;;;;3.34;88.70;97975.22;6306219;22;20501;-76
2023/03/09 01:19:27;;;;;;;0.00;0.00;;;;;;;3.26;88.52;97968.53;6274109;22;20017;-76
2023/03/09 01:21:53;;;;;;;0.10;0.10;;;;;;;3.27;88.28;97987.16;6331659;22;20035;-76
2023/03/09 01:24:19;;;;;;;0.10;0.10;;;;;;;3.27;88.45;98007.94;6305171;22;20010;-76
2023/03/09 01:26:44;;;;;;;0.00;0.00;;;;;;;3.19;88.85;98001.22;6360897;22;20006;-76
2023/03/09 01:29:10;;;;;;;0.00;0.00;;;;;;;3.21;88.93;98003.66;6335330;22;20416;-76
2023/03/09 01:31:35;;;;;;;0.00;0.00;;;;;;;3.15;89.25;97994.75;6306304;22;20417;-77
2023/03/09 01:34:01;;;;;;;0.00;0.00;;;;;;;3.03;89.13;97986.19;6311060;22;20048;-77
2023/03/09 01:36:26;;;;;;;0.00;0.00;;;;;;;3.14;89.32;98001.25;6304011;22;20024;-76
2023/03/09 01:38:51;;;;;;;0.00;0.00;;;;;;;3.12;89.16;98004.22;6310434;22;20490;-77
2023/03/09 01:41:19;;;;;;;0.00;0.00;;;;;;;3.08;88.74;98021.25;6310257;22;20010;-76
2023/03/09 01:43:51;;;;;;;0.00;0.00;;;;;;;3.13;89.54;98034.75;6359316;22;20009;-76
2023/03/09 01:46:25;;;;;;;0.00;0.00;;;;;;;3.10;89.06;98051.50;6336089;22;19998;-77
2023/03/09 01:48:57;;;;;;;0.10;0.10;;;;;;;3.09;89.26;98049.88;6331804;22;20342;-77
2023/03/09 01:51:27;;;;;;;0.10;0.10;;;;;;;3.10;90.12;98046.09;6366153;22;20026;-77
2023/03/09 01:53:53;;;;;;;0.00;0.00;;;;;;;3.10;90.11;98060.41;6358538;22;20006;-77
2023/03/09 01:56:21;;;;;;;0.00;0.00;;;;;;;3.09;89.64;98066.09;6311505;22;20424;-77
2023/03/09 01:58:50;;;;;;;0.00;0.00;;;;;;;3.09;90.34;98064.19;6338006;22;19998;-77
2023/03/09 02:01:17;;;;;;;0.00;0.00;;;;;;;3.16;90.15;98080.09;6359657;22;20302;-75
2023/03/09 02:03:46;;;;;;;0.00;0.00;;;;;;;3.19;90.43;98087.66;6311209;22;20013;-77
2023/03/09 02:06:16;;;;;;;0.00;0.00;;;;;;;3.09;90.13;98093.09;6355745;22;20051;-76
2023/03/09 02:08:52;;;;;;;0.00;0.00;;;;;;;3.00;90.01;98105.53;6334728;22;20002;-76
2023/03/09 02:11:18;;;;;;;0.00;0.00;;;;;;;2.81;89.94;98108.78;6330203;22;20306;-76
2023/03/09 02:13:51;;;;;;;0.00;0.00;;;;;;;2.70;89.77;98107.19;6335996;22;20329;-76
2023/03/09 02:16:17;;;;;;;0.00;0.00;;;;;;;2.61;90.45;98107.75;6329941;22;20028;-76
2023/03/09 02:18:42;;;;;;;0.00;0.00;;;;;;;2.52;90.24;98109.34;6364421;22;20005;-76
2023/03/09 02:21:21;;;;;;;0.00;0.00;;;;;;;2.48;91.40;98116.34;6305713;22;20029;-76
2023/03/09 02:23:52;;;;;;;0.00;0.00;;;;;;;2.41;91.11;98105.84;6334858;22;20002;-76
2023/03/09 02:26:54;;;;;;;0.00;0.00;;;;;;;2.36;91.31;98088.84;6361470;22;20010;-76
2023/03/09 02:29:19;;;;;;;0.00;0.00;;;;;;;2.37;91.17;98093.16;6335222;22;20010;-77
2023/03/09 02:31:45;;;;;;;0.00;0.00;;;;;;;2.38;91.43;98094.78;6305333;22;20451;-76
2023/03/09 02:34:11;;;;;;;0.00;0.00;;;;;;;2.36;91.83;98084.25;6283950;22;20637;-77
2023/03/09 02:36:36;;;;;;;0.10;0.10;;;;;;;2.36;91.48;98086.16;6301987;22;20018;-78
2023/03/09 02:39:16;;;;;;;0.00;0.00;;;;;;;2.43;91.92;98079.41;6282930;22;20014;-78
2023/03/09 02:41:42;;;;;;;0.00;0.00;;;;;;;2.34;91.93;98050.56;6332087;22;20840;-78
2023/03/09 02:44:08;;;;;;;0.10;0.10;;;;;;;2.41;91.83;98078.03;6283469;22;20045;-76
2023/03/09 02:46:34;;;;;;;0.00;0.00;;;;;;;2.37;91.96;98066.19;6283174;22;20297;-76
2023/03/09 02:48:59;;;;;;;0.00;0.00;;;;;;;2.42;92.25;98072.41;6279210;22;20040;-76
2023/03/09 02:51:25;;;;;;;0.00;0.00;;;;;;;2.42;92.26;98079.66;6282717;22;20007;-76
2023/03/09 02:53:50;;;;;;;0.00;0.00;;;;;;;2.39;91.82;98081.00;6335708;22;20006;-76
2023/03/09 02:56:15;;;;;;;0.00;0.00;;;;;;;2.24;92.23;98076.44;6308365;22;20416;-76
2023/03/09 02:58:41;;;;;;;0.00;0.00;;;;;;;2.34;92.65;98081.03;6308980;22;20002;-77
2023/03/09 03:01:06;;;;;;;0.00;0.00;;;;;;;2.25;92.72;98075.34;6332136;22;20010;-77
2023/03/09 03:03:34;;;;;;;0.00;0.00;;;;;;;2.31;92.92;98086.13;6309942;22;20010;-76
2023/03/09 03:05:59;;;;;;;0.00;0.00;;;;;;;2.26;92.26;98090.47;6280161;22;20009;-76
2023/03/09 03:08:25;;;;;;;0.00;0.00;;;;;;;2.30;92.95;98098.03;6310307;22;20011;-76
2023/03/09 03:10:50;;;;;;;0.00;0.00;;;;;;;2.39;92.74;98107.19;6309050;22;19998;-76
2023/03/09 03:13:16;;;;;;;0.00;0.00;;;;;;;2.38;92.38;98102.88;6332397;22;20014;-78
2023/03/09 03:15:41;;;;;;;0.00;0.00;;;;;;;2.35;92.47;98095.31;6284727;22;20436;-76
2023/03/09 03:18:07;;;;;;;0.00;0.00;;;;;;;2.41;92.48;98113.94;6285635;22;20010;-77
2023/03/09 03:20:32;;;;;;;0.00;0.00;;;;;;;2.42;92.83;98103.94;6332346;22;20014;-77
2023/03/09 03:22:57;;;;;;;0.00;0.00;;;;;;;2.35;93.35;98089.91;6309707;22;20024;-77
2023/03/09 03:25:23;;;;;;;0.00;0.00;;;;;;;2.33;93.01;98081.28;6301564;22;20420;-76
2023/03/09 03:27:48;;;;;;;0.00;0.00;;;;;;;2.41;92.85;98096.91;6300210;22;20009;-77
2023/03/09 03:30:14;;;;;;;0.00;0.00;;;;;;;2.43;92.75;98092.09;6280314;22;20013;-77
2023/03/09 03:32:53;;;;;;;0.00;0.00;;;;;;;2.39;93.21;98074.81;6301153;22;20048;-77
2023/03/09 03:35:19;;;;;;;0.00;0.00;;;;;;;2.36;92.50;98064.56;6334732;22;20007;-77
2023/03/09 03:37:44;;;;;;;0.00;0.00;;;;;;;2.51;93.14;98077.25;6301769;22;20064;-77
2023/03/09 03:40:10;;;;;;;0.00;0.00;;;;;;;2.41;92.79;98072.66;6300745;22;20343;-77
2023/03/09 03:42:36;;;;;;;0.00;0.00;;;;;;;2.41;92.36;98088.84;6275934;22;20010;-77
2023/03/09 03:45:01;;;;;;;0.00;0.00;;;;;;;2.57;92.21;98111.22;6278179;22;20052;-77
2023/03/09 03:47:26;;;;;;;0.00;0.00;;;;;;;2.53;92.43;98110.97;6299510;22;20014;-77
2023/03/09 03:49:54;;;;;;;0.00;0.00;;;;;;;2.52;92.18;98117.44;6286583;22;20447;-78
2023/03/09 03:52:20;;;;;;;0.00;0.00;;;;;;;2.53;92.89;98124.47;6299528;22;20018;-77
2023/03/09 03:54:45;;;;;;;0.00;0.00;;;;;;;2.60;92.39;98125.00;6327152;22;20435;-76
2023/03/09 03:57:10;;;;;;;0.00;0.00;;;;;;;2.65;92.44;98131.47;6331665;22;20606;-76
2023/03/09 03:59:39;;;;;;;0.10;0.10;;;;;;;2.69;92.59;98130.66;6304553;22;20097;-77
2023/03/09 04:02:05;;;;;;;0.10;0.10;;;;;;;2.71;92.41;98114.19;6306490;22;20098;-76
2023/03/09 04:04:30;;;;;;;0.00;0.00;;;;;;;2.76;92.32;98112.31;6300251;22;20026;-77
2023/03/09 04:06:56;;;;;;;0.00;0.00;;;;;;;2.81;92.07;98118.78;6306632;22;20025;-78
2023/03/09 04:09:21;;;;;;;0.00;0.00;;;;;;;2.87;91.87;98115.81;6302656;22;20003;-77
2023/03/09 04:11:46;;;;;;;0.00;0.00;;;;;;;2.90;92.03;98123.34;6276027;22;20013;-76
2023/03/09 04:14:12;;;;;;;0.00;0.00;;;;;;;2.91;92.15;98129.56;6306081;22;20011;-77
2023/03/09 04:16:38;;;;;;;0.00;0.00;;;;;;;2.89;92.84;98127.16;6277632;22;20006;-78
2023/03/09 04:19:04;;;;;;;0.00;0.00;;;;;;;2.91;92.63;98135.78;6304732;22;20011;-77
2023/03/09 04:21:29;;;;;;;0.10;0.10;;;;;;;2.93;91.94;98132.81;6304334;22;20606;-76
2023/03/09 04:23:55;;;;;;;0.00;0.00;;;;;;;2.95;92.44;98134.16;6277284;22;20006;-76
2023/03/09 04:26:20;;;;;;;0.00;0.00;;;;;;;3.03;92.87;98140.09;6275841;22;20023;-76
2023/03/09 04:28:46;;;;;;;0.00;0.00;;;;;;;3.07;92.72;98138.47;6277876;22;20093;-76
2023/03/09 04:31:11;;;;;;;0.10;0.10;;;;;;;3.09;92.60;98136.28;6304690;22;19999;-77
2023/03/09 04:33:37;;;;;;;0.00;0.00;;;;;;;3.14;91.77;98139.00;6333315;22;20100;-77
2023/03/09 04:36:03;;;;;;;0.00;0.00;;;;;;;3.11;92.83;98117.91;6300127;22;20007;-76
2023/03/09 04:38:28;;;;;;;0.00;0.00;;;;;;;3.22;92.03;98130.31;6304808;22;20332;-76
2023/03/09 04:40:54;;;;;;;0.00;0.00;;;;;;;3.23;91.57;98125.75;6305979;22;20428;-75
2023/03/09 04:43:19;;;;;;;0.00;0.00;;;;;;;3.32;92.09;98127.59;6276116;22;20011;-77
2023/03/09 04:45:44;;;;;;;0.00;0.00;;;;;;;3.37;91.72;98125.97;6305957;22;20051;-76
2023/03/09 04:48:10;;;;;;;0.00;0.00;;;;;;;3.49;91.17;98129.19;6301393;22;20017;-77
2023/03/09 04:50:35;;;;;;;0.00;0.00;;;;;;;3.44;90.62;98121.06;6303856;22;20013;-76
2023/03/09 04:53:01;;;;;;;0.00;0.00;;;;;;;3.40;90.61;98120.84;6275605;22;20007;-75
2023/03/09 04:55:28;;;;;;;0.00;0.00;;;;;;;3.35;90.71;98117.34;6305899;22;20002;-76
2023/03/09 04:57:54;;;;;;;0.00;0.00;;;;;;;3.17;90.64;98100.63;6283519;22;20002;-76
2023/03/09 05:00:20;;;;;;;0.00;0.00;;;;;;;3.29;90.40;98125.44;6277070;22;20009;-76
2023/03/09 05:02:45;;;;;;;0.00;0.00;;;;;;;3.30;90.02;98115.44;6307158;22;20007;-78
2023/03/09 05:05:11;;;;;;;0.00;0.00;;;;;;;3.12;90.97;98095.22;6303058;22;20007;-78
2023/03/09 05:07:36;;;;;;;0.00;0.00;;;;;;;3.16;90.00;98107.13;6308192;22;20444;-77
2023/03/09 05:10:03;;;;;;;0.00;0.00;;;;;;;3.18;90.06;98117.63;6328443;22;20010;-77
2023/03/09 05:12:31;;;;;;;0.00;0.00;;;;;;;3.16;90.12;98122.53;6280612;22;20014;-76
2023/03/09 05:15:03;;;;;;;0.00;0.00;;;;;;;3.09;90.64;98123.59;6308161;22;20424;-76
2023/03/09 05:17:31;;;;;;;0.00;0.00;;;;;;;2.88;89.89;98090.44;6280694;22;20093;-75
2023/03/09 05:19:57;;;;;;;0.00;0.00;;;;;;;3.09;90.23;98125.50;6307079;22;20477;-75
2023/03/09 05:22:22;;;;;;;0.00;0.00;;;;;;;3.01;89.98;98107.13;6303143;22;20011;-74
2023/03/09 05:24:47;;;;;;;0.00;0.00;;;;;;;3.10;89.83;98121.72;6301701;22;20015;-76
2023/03/09 05:27:13;;;;;;;0.00;0.00;;;;;;;3.02;90.71;98108.75;6330453;22;20476;-75
2023/03/09 05:29:39;;;;;;;0.00;0.00;;;;;;;3.03;89.96;98115.78;6253488;22;20011;-76
2023/03/09 05:32:05;;;;;;;0.00;0.00;;;;;;;3.03;90.14;98122.00;6333344;22;19998;-75
2023/03/09 05:34:31;;;;;;;0.10;0.10;;;;;;;3.03;90.18;98111.19;6331098;22;20048;-75
2023/03/09 05:36:57;;;;;;;0.00;0.00;;;;;;;3.05;90.56;98100.13;6280439;22;20373;-75
2023/03/09 05:39:25;;;;;;;0.00;0.00;;;;;;;2.93;90.57;98085.00;6299881;22;20014;-75
2023/03/09 05:41:50;;;;;;;0.00;0.00;;;;;;;3.10;90.62;98097.41;6334727;22;20006;-75
2023/03/09 05:44:15;;;;;;;0.00;0.00;;;;;;;3.11;90.33;98090.91;6301396;22;20021;-74
2023/03/09 05:46:41;;;;;;;0.00;0.00;;;;;;;3.12;90.12;98087.94;6277439;22;20059;-75
2023/03/09 05:49:06;;;;;;;0.00;0.00;;;;;;;3.17;90.39;98095.22;6306636;22;20325;-75
2023/03/09 05:51:33;;;;;;;0.00;0.00;;;;;;;3.15;90.06;98097.38;6306457;22;20002;-77
2023/03/09 05:53:58;;;;;;;0.00;0.00;;;;;;;3.14;90.37;98090.38;6305945;22;20101;-76
2023/03/09 05:56:23;;;;;;;0.00;0.00;;;;;;;3.12;90.61;98087.13;6302396;22;20027;-77
2023/03/09 05:58:50;;;;;;;0.00;0.00;;;;;;;3.11;90.47;98088.22;6309073;22;20003;-77
2023/03/09 06:01:21;;;;;;;0.10;0.10;;;;;;;3.16;90.71;98106.31;6302875;22;20195;-77
2023/03/09 06:03:46;;;;;;;0.00;0.00;;;;;;;3.12;90.40;98103.34;6306452;22;20006;-76
2023/03/09 06:06:12;;;;;;;0.00;0.00;;;;;;;3.01;90.87;98085.53;6278138;22;20003;-76
2023/03/09 06:08:37;;;;;;;0.00;0.00;;;;;;;3.09;90.76;98088.47;6305652;22;20028;-78
2023/03/09 06:11:05;;;;;;;0.10;0.10;;;;;;;3.09;90.52;98082.28;6256640;22;20002;-76
2023/03/09 06:13:30;;;;;;;0.00;0.00;;;;;;;3.12;90.89;98084.44;6278884;22;20011;-77
2023/03/09 06:15:56;;;;;;;0.00;0.00;;;;;;;3.16;91.09;98082.00;6282446;22;20011;-77
2023/03/09 06:18:21;;;;;;;0.00;0.00;;;;;;;3.22;91.08;98081.69;6302589;22;20636;-77
2023/03/09 06:20:48;;;;;;;0.00;0.00;;;;;;;3.26;90.40;98087.38;6278346;22;20006;-76
2023/03/09 06:23:13;;;;;;;0.00;0.00;;;;;;;3.38;90.24;98095.97;6280951;22;20007;-77
2023/03/09 06:25:39;;;;;;;0.00;0.00;;;;;;;3.26;90.35;98077.38;6303982;22;20023;-78
2023/03/09 06:28:05;;;;;;;0.00;0.00;;;;;;;3.19;90.22;98059.84;6306377;22;20007;-77
2023/03/09 06:30:33;;;;;;;0.00;0.00;;;;;;;3.35;90.05;98085.72;6302250;22;20394;-77
2023/03/09 06:33:01;;;;;;;0.00;0.00;;;;;;;3.10;89.53;98067.72;6302809;22;20435;-77
2023/03/09 06:35:26;;;;;;;0.00;0.00;;;;;;;3.24;90.29;98101.16;6279510;22;20337;-78
2023/03/09 06:38:02;;;;;;;0.00;0.00;;;;;;;3.15;90.29;98081.19;6251175;22;20014;-79
2023/03/09 06:40:30;;;;;;;0.00;0.00;;;;;;;3.16;90.42;98077.41;6305160;22;20030;-77
2023/03/09 06:42:58;;;;;;;0.10;0.10;;;;;;;3.17;90.04;98072.81;6304619;22;20011;-75
2023/03/09 06:45:24;;;;;;;0.00;0.00;;;;;;;3.40;90.67;98085.72;6306708;22;20056;-77
2023/03/09 06:47:53;;;;;;;0.00;0.00;;;;;;;3.44;90.54;98088.66;6328314;22;20663;-76
2023/03/09 06:50:18;;;;;;;0.00;0.00;;;;;;;3.46;90.76;98102.69;6279663;22;20013;-76
2023/03/09 06:52:44;;;;;;;0.00;0.00;;;;;;;3.44;89.63;98091.34;6301958;22;20077;-76
2023/03/09 06:55:10;;;;;;;0.10;0.10;;;;;;;3.46;90.01;98108.09;6306212;22;20014;-74
2023/03/09 06:57:36;;;;;;;0.00;0.00;;;;;;;3.41;90.20;98110.81;6335344;22;20003;-80
2023/03/09 07:00:04;;;;;;;0.10;0.10;;;;;;;3.34;90.41;98118.41;6331677;22;20051;-78
2023/03/09 07:02:29;;;;;;;0.10;0.10;;;;;;;3.17;90.04;98097.09;6281237;22;20011;-77
2023/03/09 07:04:57;;;;;;;0.00;0.00;;;;;;;3.20;90.72;98110.88;6278619;22;20310;-79
2023/03/09 07:07:24;;;;;;;0.00;0.00;;;;;;;3.13;90.94;98107.66;6307680;22;20412;-76
2023/03/09 07:09:50;;;;;;;0.00;0.00;;;;;;;3.09;90.67;98093.09;6303150;22;20569;-76
2023/03/09 07:12:16;;;;;;;0.00;0.00;;;;;;;3.13;90.90;98094.16;6307270;22;20010;-76
2023/03/09 07:14:41;;;;;;;0.00;0.00;;;;;;;3.21;91.06;98109.78;6305110;22;20003;-76
2023/03/09 07:17:11;;;;;;;0.00;0.00;;;;;;;3.24;90.50;98111.97;6304520;22;20002;-76
2023/03/09 07:19:39;;;;;;;0.00;0.00;;;;;;;3.15;91.13;98086.59;6329522;22;20006;-76
2023/03/09 07:22:06;;;;;;;0.00;0.00;;;;;;;3.16;91.28;98085.50;6278777;22;20018;-75
2023/03/09 07:24:34;;;;;;;0.00;0.00;;;;;;;3.32;91.47;98097.88;6278675;22;20060;-76
2023/03/09 07:27:00;;;;;;;0.00;0.00;;;;;;;3.31;91.05;98085.47;6327960;22;20506;-75
2023/03/09 07:29:25;;;;;;;0.00;0.00;;;;;;;3.31;90.89;98080.06;6302417;22;20002;-76
2023/03/09 07:31:51;;;;;;;0.00;0.00;;;;;;;3.42;91.23;98096.25;6331913;22;20006;-79
2023/03/09 07:34:16;;;;;;;0.00;0.00;;;;;;;3.55;91.47;98106.44;6279920;22;20002;-79
2023/03/09 07:36:42;;;;;;;0.03;0.03;;;;;;;3.47;90.76;98085.41;6331137;22;20028;-78
2023/03/09 07:39:15;;;;;;;0.00;0.00;;;;;;;3.51;91.01;98075.66;6256863;22;20064;-78
2023/03/09 07:41:42;;;;;;;0.00;0.00;;;;;;;3.56;90.99;98081.03;6332526;22;20077;-78
2023/03/09 07:44:15;;;;;;;0.00;0.00;;;;;;;3.62;90.55;98068.28;6331123;22;20002;-77
2023/03/09 07:46:40;;;;;;;0.00;0.00;;;;;;;3.73;91.19;98085.28;6332558;22;20002;-77
2023/03/09 07:49:06;;;;;;;0.00;0.00;;;;;;;3.84;89.91;98092.22;6304715;22;20007;-79
2023/03/09 07:51:50;;;;;;;0.00;0.00;;;;;;;3.83;90.63;98079.81;6307978;22;20395;-77
2023/03/09 07:54:15;;;;;;;0.00;0.00;;;;;;;3.84;90.07;98073.31;6277876;22;20011;-78
2023/03/09 07:56:41;;;;;;;0.00;0.00;;;;;;;4.06;90.26;98082.91;6281064;22;20259;-78
2023/03/09 07:59:12;;;;;;;0.00;0.00;;;;;;;4.01;89.58;98056.72;6303622;22;20005;-77
2023/03/09 08:01:38;;;;;;;0.00;0.00;;;;;;;4.23;90.00;98067.09;6332700;22;19999;-77
2023/03/09 08:04:03;;;;;;;0.00;0.00;;;;;;;4.43;89.35;98081.59;6277830;22;20032;-76
2023/03/09 08:06:29;;;;;;;0.00;0.00;;;;;;;4.60;89.56;98065.75;6303916;22;20016;-77
2023/03/09 08:08:54;;;;;;;0.03;0.03;;;;;;;4.86;89.23;98079.03;6306317;22;20009;-78
2023/03/09 08:11:21;;;;;;;0.00;0.00;;;;;;;4.87;88.03;98072.53;6276277;22;20006;-78
2023/03/09 08:13:48;;;;;;;0.00;0.00;;;;;;;4.96;88.67;98084.34;6333535;22;20026;-78
2023/03/09 08:16:16;;;;;;;0.00;0.00;;;;;;;4.95;87.70;98077.34;6275842;22;20042;-78
2023/03/09 08:18:41;;;;;;;0.00;0.00;;;;;;;5.14;88.14;98074.69;6332354;22;20018;-77
2023/03/09 08:21:15;;;;;;;0.00;0.00;;;;;;;5.22;87.51;98065.13;6283602;22;20034;-77
2023/03/09 08:23:41;;;;;;;0.00;0.00;;;;;;;5.22;87.23;98062.41;6329581;22;20418;-77
2023/03/09 08:26:08;;;;;;;0.00;0.00;;;;;;;5.25;86.81;98070.75;6256675;22;20015;-77
2023/03/09 08:28:33;;;;;;;0.00;0.00;;;;;;;5.24;86.53;98063.75;6304969;22;20010;-77
2023/03/09 08:30:59;;;;;;;0.00;0.00;;;;;;;5.46;86.83;98065.13;6303472;22;20010;-79
2023/03/09 08:33:25;;;;;;;0.00;0.00;;;;;;;5.64;86.05;98066.22;6306076;22;20085;-79
2023/03/09 08:35:51;;;;;;;0.00;0.00;;;;;;;5.72;85.76;98057.47;6328381;22;20178;-78
2023/03/09 08:38:16;;;;;;;0.00;0.00;;;;;;;5.83;86.07;98063.53;6306965;22;20457;-76
2023/03/09 08:40:43;;;;;;;0.00;0.00;;;;;;;5.88;86.15;98049.09;6327918;22;20468;-80
2023/03/09 08:43:11;;;;;;;0.00;0.00;;;;;;;6.04;85.02;98020.66;6308728;22;20333;-78
2023/03/09 08:45:38;;;;;;;0.00;0.00;;;;;;;6.39;84.21;98042.91;6305645;22;19999;-82
2023/03/09 08:48:03;;;;;;;0.00;0.00;;;;;;;6.45;83.52;98036.31;6304657;22;20002;-80
2023/03/09 08:50:29;;;;;;;0.00;0.00;;;;;;;6.51;83.85;98038.94;6282226;22;20017;-80
2023/03/09 08:52:55;;;;;;;0.10;0.10;;;;;;;6.63;83.23;98036.56;6277716;22;20030;-79
2023/03/09 08:55:21;;;;;;;0.00;0.00;;;;;;;6.62;83.10;98018.66;6335608;22;20351;-84
2023/03/09 08:57:58;;;;;;;;;;;;;;;;;;;;;
2023/03/09 09:00:40;;;;;;;0.00;0.00;;;;;;;6.59;82.57;98036.34;6330060;22;20082;-84
2023/03/09 09:03:08;;;;;;;0.10;0.10;;;;;;;6.30;83.19;98033.84;6306682;22;19995;-84
2023/03/09 09:05:34;;;;;;;0.00;0.00;;;;;;;6.28;83.31;98039.56;6304242;22;20011;-84
2023/03/09 09:08:02;;;;;;;0.00;0.00;;;;;;;6.09;84.26;98034.16;6311317;22;20493;-84
2023/03/09 09:10:27;;;;;;;0.00;0.00;;;;;;;5.97;84.92;98047.34;6329381;22;20034;-84
2023/03/09 09:12:53;;;;;;;0.00;0.00;;;;;;;5.77;85.17;98027.53;6306547;22;20026;-84
2023/03/09 09:15:18;;;;;;;0.00;0.00;;;;;;;5.86;86.52;98035.03;6280377;22;20006;-84
2023/03/09 09:17:54;;;;;;;0.00;0.00;;;;;;;5.92;86.32;98023.78;6308520;22;20090;-83
2023/03/09 09:20:19;;;;;;;0.05;0.05;;;;;;;6.17;86.39;98021.81;6305476;22;20010;-84
2023/03/09 09:22:45;;;;;;;0.00;0.00;;;;;;;6.24;85.42;98013.31;6309001;22;20413;-76
2023/03/09 09:25:11;;;;;;;0.00;0.00;;;;;;;6.62;85.17;98035.75;6339199;22;20072;-77
2023/03/09 09:27:36;;;;;;;0.00;0.00;;;;;;;6.88;84.49;98020.88;6303662;22;20010;-77
2023/03/09 09:30:04;;;;;;;0.00;0.00;;;;;;;7.05;84.50;98018.38;6280574;22;20029;-76
2023/03/09 09:32:30;;;;;;;0.00;0.00;;;;;;;7.26;84.19;98015.28;6329284;22;19998;-76
2023/03/09 09:35:00;;;;;;;0.10;0.10;;;;;;;7.50;84.03;98013.16;6308660;22;19994;-84
2023/03/09 09:37:28;;;;;;;0.00;0.00;;;;;;;7.79;83.89;98028.28;6307096;22;20029;-84
2023/03/09 09:40:03;;;;;;;0.00;0.00;;;;;;;7.95;83.25;98026.00;6313192;22;19998;-85
2023/03/09 09:42:35;;;;;;;0.00;0.00;;;;;;;8.22;82.57;98029.78;6286585;22;20058;-85
2023/03/09 09:45:04;;;;;;;0.00;0.00;;;;;;;8.39;82.40;98018.97;6311632;22;20040;-83
2023/03/09 09:47:30;;;;;;;0.00;0.00;;;;;;;8.79;82.31;98015.56;6309172;22;20136;-84
2023/03/09 09:49:59;;;;;;;0.00;0.00;;;;;;;9.66;81.06;98015.03;6310792;22;20081;-84
2023/03/09 09:52:37;;;;;;;0.00;0.00;;;;;;;10.21;79.39;98015.56;6310458;22;19999;-84
2023/03/09 09:55:08;;;;;;;0.00;0.00;;;;;;;10.47;78.43;98026.50;6308859;22;20006;-84
2023/03/09 09:58:02;;;;;;;0.00;0.00;;;;;;;10.46;78.02;98022.13;6310919;22;20388;-85
2023/03/09 10:00:54;;;;;;;0.00;0.00;;;;;;;10.25;78.15;98003.66;6311271;22;19998;-84
2023/03/09 10:03:24;;;;;;;0.00;0.00;;;;;;;10.43;78.47;98004.47;6329255;22;19995;-83
2023/03/09 10:06:20;;;;;;;0.00;0.00;;;;;;;11.05;78.16;97996.06;6336316;22;20078;-83
2023/03/09 10:09:08;;;;;;;0.00;0.00;;;;;;;11.67;76.41;98011.84;6304721;22;20006;-85
2023/03/09 10:11:43;;;;;;;0.00;0.00;;;;;;;11.88;75.70;97994.63;6332347;22;19999;-84
2023/03/09 10:14:32;;;;;;;0.00;0.00;;;;;;;11.72;75.16;98001.81;6307764;22;20089;-84
2023/03/09 10:17:11;;;;;;;0.10;0.10;;;;;;;11.30;75.36;97986.97;6304309;22;20013;-83
2023/03/09 10:19:40;;;;;;;0.00;0.00;;;;;;;11.07;76.30;97988.34;6306459;22;20060;-84
2023/03/09 10:22:33;;;;;;;0.00;0.00;;;;;;;11.06;77.36;97981.28;6303744;22;20010;-83
2023/03/09 10:24:58;;;;;;;0.00;0.00;;;;;;;11.52;76.78;97985.03;6281656;22;20344;-83
2023/03/09 10:27:30;;;;;;;0.00;0.00;;;;;;;11.68;76.66;97990.72;6305505;22;20054;-84
2023/03/09 10:30:01;;;;;;;0.00;0.00;;;;;;;11.77;76.81;97987.94;6307514;22;20013;-84
2023/03/09 10:32:36;;;;;;;0.00;0.00;;;;;;;11.96;75.94;97988.31;6314714;22;20081;-85
2023/03/09 10:35:24;;;;;;;0.00;0.00;;;;;;;11.64;76.69;97981.59;6315347;22;20074;-85
2023/03/09 10:37:51;;;;;;;0.00;0.00;;;;;;;11.45;77.44;97985.56;6314455;22;20413;-85
2023/03/09 10:40:51;;;;;;;0.00;0.00;;;;;;;11.49;78.31;97982.97;6317815;22;20013;-86
2023/03/09 10:43:27;;;;;;;0.00;0.00;;;;;;;11.30;78.37;97965.06;6317402;22;19999;-87
2023/03/09 10:45:54;;;;;;;0.00;0.00;;;;;;;11.41;79.72;97981.09;6186045;22;20314;-85
2023/03/09 10:48:26;;;;;;;0.00;0.00;;;;;;;11.51;79.77;97972.50;6286804;22;20006;-86
2023/03/09 10:51:21;;;;;;;0.00;0.00;;;;;;;11.86;79.42;97970.31;6284797;22;20003;-85
2023/03/09 10:53:48;;;;;;;0.10;0.10;;;;;;;12.41;76.86;97942.91;6162046;22;82555;-85
2023/03/09 10:56:25;;;;;;;0.00;0.00;;;;;;;13.60;75.36;97966.78;6052579;23;20011;-87
2023/03/09 10:59:11;;;;;;;0.00;0.00;;;;;;;14.18;73.48;97967.63;6161570;23;20000;-85
2023/03/09 11:01:46;;;;;;;0.00;0.00;;;;;;;14.17;71.23;97960.56;6194534;23;20004;-86
2023/03/09 11:04:39;;;;;;;0.00;0.00;;;;;;;13.73;73.64;97970.28;6221480;23;20016;-87
2023/03/09 11:07:19;;;;;;;0.00;0.00;;;;;;;14.62;74.56;97949.22;6205327;23;20004;-79
2023/03/09 11:09:56;;;;;;;0.00;0.00;;;;;;;17.10;65.37;97944.59;6186561;23;20010;-79
2023/03/09 11:12:36;;;;;;;0.00;0.00;;;;;;;16.53;64.91;97964.47;6184258;23;20004;-79
2023/03/09 11:15:30;;;;;;;0.00;0.00;;;;;;;16.15;67.08;97971.63;6184528;23;20004;-82
2023/03/09 11:17:57;;;;;;;0.00;0.00;;;;;;;15.61;69.72;97953.13;6206106;23;20005;-79
2023/03/09 11:20:52;;;;;;;0.00;0.00;;;;;;;14.69;73.55;97962.38;6249561;22;20037;-84
2023/03/09 11:23:29;;;;;;;0.00;0.00;;;;;;;14.13;75.58;97939.28;6293465;22;19999;-85
2023/03/09 11:26:23;;;;;;;0.00;0.00;;;;;;;14.08;77.72;97958.75;6313834;22;20016;-85
2023/03/09 11:29:07;;;;;;;0.00;0.00;;;;;;;14.64;76.36;97943.38;6277307;22;20003;-84
2023/03/09 11:31:38;;;;;;;0.00;0.00;;;;;;;14.87;75.43;97953.78;6282905;22;20007;-83
2023/03/09 11:34:34;;;;;;;0.00;0.00;;;;;;;14.45;76.50;97949.53;6276575;22;20392;-85
2023/03/09 11:37:18;;;;;;;0.00;0.00;;;;;;;13.19;82.15;97940.38;6279866;22;20011;-84
2023/03/09 11:40:19;;;;;;;0.00;0.00;;;;;;;12.36;86.91;97916.53;6275954;22;20050;-86
2023/03/09 11:42:55;;;;;;;0.00;0.00;;;;;;;11.83;90.77;97948.28;6273450;22;20015;-84
2023/03/09 11:45:32;;;;;;;0.00;0.00;;;;;;;11.47;92.95;97946.94;6274781;22;20008;-85
2023/03/09 11:48:04;;;;;;;0.00;0.00;;;;;;;11.45;95.23;97946.47;6270524;22;20004;-77
2023/03/09 11:50:58;;;;;;;0.00;0.00;;;;;;;11.19;96.82;97941.94;6269324;22;20003;-77